sensor_id;sensor_type;location;lat;lon;timestamp;pressure;altitude;pressure_sealevel;temperature;humidity
18022;BME280;9136;48.822;7.966;2023-07-20T00:00:32;100125.53;;;18.07;94.94
18022;BME280;9136;48.822;7.966;2023-07-20T00:03:20;100128.28;;;18.06;94.25
18022;BME280;9136;48.822;7.966;2023-07-20T00:06:11;100148.69;;;18.05;94.68
18022;BME280;9136;48.822;7.966;2023-07-20T00:08:59;100125.00;;;17.88;96.11
18022;BME280;9136;48.822;7.966;2023-07-20T00:11:49;100116.03;;;17.76;99.20
18022;BME280;9136;48.822;7.966;2023-07-20T00:14:38;100134.16;;;17.69;100.00
18022;BME280;9136;48.822;7.966;2023-07-20T00:17:26;100117.06;;;17.59;100.00
18022;BME280;9136;48.822;7.966;2023-07-20T00:20:14;100134.91;;;17.71;100.00
18022;BME280;9136;48.822;7.966;2023-07-20T00:23:02;100121.63;;;17.57;100.00
18022;BME280;9136;48.822;7.966;2023-07-20T00:25:52;100149.31;;;17.67;100.00
18022;BME280;9136;48.822;7.966;2023-07-20T00:28:40;100141.81;;;17.60;100.00
18022;BME280;9136;48.822;7.966;2023-07-20T00:31:29;100135.81;;;17.56;100.00
18022;BME280;9136;48.822;7.966;2023-07-20T00:34:17;100111.66;;;17.32;100.00
18022;BME280;9136;48.822;7.966;2023-07-20T00:37:06;100126.00;;;17.30;100.00
18022;BME280;9136;48.822;7.966;2023-07-20T00:39:54;100132.03;;;17.17;100.00
18022;BME280;9136;48.822;7.966;2023-07-20T00:42:45;100151.22;;;17.08;100.00
18022;BME280;9136;48.822;7.966;2023-07-20T00:45:33;100131.09;;;16.90;100.00
18022;BME280;9136;48.822;7.966;2023-07-20T00:48:24;100133.06;;;16.86;100.00
18022;BME280;9136;48.822;7.966;2023-07-20T00:51:13;100126.44;;;16.79;100.00
18022;BME280;9136;48.822;7.966;2023-07-20T00:54:02;100133.34;;;16.82;100.00
18022;BME280;9136;48.822;7.966;2023-07-20T00:56:50;100129.09;;;16.79;100.00
18022;BME280;9136;48.822;7.966;2023-07-20T00:59:41;100121.47;;;16.73;100.00
18022;BME280;9136;48.822;7.966;2023-07-20T01:02:28;100147.38;;;16.84;100.00
18022;BME280;9136;48.822;7.966;2023-07-20T01:05:18;100141.50;;;16.93;100.00
18022;BME280;9136;48.822;7.966;2023-07-20T01:08:11;100137.25;;;16.91;100.00
18022;BME280;9136;48.822;7.966;2023-07-20T01:11:06;100140.47;;;16.96;100.00
18022;BME280;9136;48.822;7.966;2023-07-20T01:13:57;100137.34;;;16.89;100.00
18022;BME280;9136;48.822;7.966;2023-07-20T01:16:46;100130.38;;;16.72;100.00
18022;BME280;9136;48.822;7.966;2023-07-20T01:19:35;100132.75;;;16.77;100.00
18022;BME280;9136;48.822;7.966;2023-07-20T01:22:45;100119.88;;;16.71;100.00
18022;BME280;9136;48.822;7.966;2023-07-20T01:25:54;100124.47;;;16.67;100.00
18022;BME280;9136;48.822;7.966;2023-07-20T01:28:57;100119.34;;;16.64;100.00
18022;BME280;9136;48.822;7.966;2023-07-20T01:31:57;100119.94;;;16.69;100.00
18022;BME280;9136;48.822;7.966;2023-07-20T01:34:47;100100.53;;;16.69;100.00
18022;BME280;9136;48.822;7.966;2023-07-20T01:37:38;100136.56;;;16.87;100.00
18022;BME280;9136;48.822;7.966;2023-07-20T01:40:27;100112.47;;;16.76;100.00
18022;BME280;9136;48.822;7.966;2023-07-20T01:43:15;100132.59;;;16.80;100.00
18022;BME280;9136;48.822;7.966;2023-07-20T01:46:03;100115.19;;;16.60;100.00
18022;BME280;9136;48.822;7.966;2023-07-20T01:48:53;100108.53;;;16.53;100.00
18022;BME280;9136;48.822;7.966;2023-07-20T01:51:41;100130.00;;;16.48;100.00
18022;BME280;9136;48.822;7.966;2023-07-20T01:54:29;100120.09;;;16.36;100.00
18022;BME280;9136;48.822;7.966;2023-07-20T01:57:17;100115.34;;;16.27;100.00
18022;BME280;9136;48.822;7.966;2023-07-20T02:00:06;100099.31;;;16.14;100.00
18022;BME280;9136;48.822;7.966;2023-07-20T02:02:56;100105.78;;;16.09;100.00
18022;BME280;9136;48.822;7.966;2023-07-20T02:05:45;100112.22;;;16.05;100.00
18022;BME280;9136;48.822;7.966;2023-07-20T02:08:34;100114.97;;;16.03;100.00
18022;BME280;9136;48.822;7.966;2023-07-20T02:11:22;100113.75;;;16.09;100.00
18022;BME280;9136;48.822;7.966;2023-07-20T02:14:10;100118.28;;;16.07;100.00
18022;BME280;9136;48.822;7.966;2023-07-20T02:16:58;100124.63;;;16.04;100.00
18022;BME280;9136;48.822;7.966;2023-07-20T02:19:50;100132.28;;;16.09;100.00
18022;BME280;9136;48.822;7.966;2023-07-20T02:22:40;100108.19;;;15.97;100.00
18022;BME280;9136;48.822;7.966;2023-07-20T02:25:28;100135.13;;;16.06;100.00
18022;BME280;9136;48.822;7.966;2023-07-20T02:28:15;100116.44;;;15.93;100.00
18022;BME280;9136;48.822;7.966;2023-07-20T02:31:03;100130.34;;;15.96;100.00
18022;BME280;9136;48.822;7.966;2023-07-20T02:33:51;100131.72;;;15.88;100.00
18022;BME280;9136;48.822;7.966;2023-07-20T02:36:39;100128.63;;;15.80;100.00
18022;BME280;9136;48.822;7.966;2023-07-20T02:39:30;100131.69;;;15.72;100.00
18022;BME280;9136;48.822;7.966;2023-07-20T02:42:18;100131.13;;;15.67;100.00
18022;BME280;9136;48.822;7.966;2023-07-20T02:45:06;100133.00;;;15.65;100.00
18022;BME280;9136;48.822;7.966;2023-07-20T02:47:54;100127.34;;;15.71;100.00
18022;BME280;9136;48.822;7.966;2023-07-20T02:50:45;100119.31;;;15.72;100.00
18022;BME280;9136;48.822;7.966;2023-07-20T02:53:33;100158.88;;;15.91;100.00
18022;BME280;9136;48.822;7.966;2023-07-20T02:56:22;100143.25;;;15.87;100.00
18022;BME280;9136;48.822;7.966;2023-07-20T02:59:10;100119.91;;;15.78;100.00
18022;BME280;9136;48.822;7.966;2023-07-20T03:01:58;100133.22;;;15.92;100.00
18022;BME280;9136;48.822;7.966;2023-07-20T03:04:48;100143.25;;;16.02;100.00
18022;BME280;9136;48.822;7.966;2023-07-20T03:07:36;100151.69;;;16.09;100.00
18022;BME280;9136;48.822;7.966;2023-07-20T03:10:24;100115.47;;;15.94;100.00
18022;BME280;9136;48.822;7.966;2023-07-20T03:13:13;100113.69;;;15.94;100.00
18022;BME280;9136;48.822;7.966;2023-07-20T03:16:02;100134.09;;;16.08;100.00
18022;BME280;9136;48.822;7.966;2023-07-20T03:18:50;100112.97;;;16.07;100.00
18022;BME280;9136;48.822;7.966;2023-07-20T03:21:38;100122.13;;;16.01;100.00
18022;BME280;9136;48.822;7.966;2023-07-20T03:24:27;100132.13;;;15.96;100.00
18022;BME280;9136;48.822;7.966;2023-07-20T03:27:16;100129.91;;;15.88;100.00
18022;BME280;9136;48.822;7.966;2023-07-20T03:30:10;100137.25;;;15.99;100.00
18022;BME280;9136;48.822;7.966;2023-07-20T03:32:58;100127.03;;;15.93;100.00
18022;BME280;9136;48.822;7.966;2023-07-20T03:35:48;100118.66;;;15.85;100.00
18022;BME280;9136;48.822;7.966;2023-07-20T03:38:36;100131.53;;;15.91;100.00
18022;BME280;9136;48.822;7.966;2023-07-20T03:41:25;100148.13;;;15.79;100.00
18022;BME280;9136;48.822;7.966;2023-07-20T03:44:13;100138.06;;;15.52;100.00
18022;BME280;9136;48.822;7.966;2023-07-20T03:47:02;100144.78;;;15.42;100.00
18022;BME280;9136;48.822;7.966;2023-07-20T03:49:51;100149.22;;;15.41;100.00
18022;BME280;9136;48.822;7.966;2023-07-20T03:52:39;100167.88;;;15.56;100.00
18022;BME280;9136;48.822;7.966;2023-07-20T03:55:29;100158.56;;;15.49;100.00
18022;BME280;9136;48.822;7.966;2023-07-20T03:58:19;100150.84;;;15.44;100.00
18022;BME280;9136;48.822;7.966;2023-07-20T04:01:07;100143.63;;;15.48;100.00
18022;BME280;9136;48.822;7.966;2023-07-20T04:03:57;100155.06;;;15.48;100.00
18022;BME280;9136;48.822;7.966;2023-07-20T04:06:48;100152.84;;;15.56;100.00
18022;BME280;9136;48.822;7.966;2023-07-20T04:09:38;100161.78;;;15.54;100.00
18022;BME280;9136;48.822;7.966;2023-07-20T04:12:26;100156.69;;;15.51;100.00
18022;BME280;9136;48.822;7.966;2023-07-20T04:15:18;100158.69;;;15.63;100.00
18022;BME280;9136;48.822;7.966;2023-07-20T04:18:10;100154.84;;;15.68;100.00
18022;BME280;9136;48.822;7.966;2023-07-20T04:21:20;100145.03;;;15.70;100.00
18022;BME280;9136;48.822;7.966;2023-07-20T04:24:08;100168.56;;;15.92;100.00
18022;BME280;9136;48.822;7.966;2023-07-20T04:26:58;100139.41;;;15.92;100.00
18022;BME280;9136;48.822;7.966;2023-07-20T04:30:06;100175.03;;;16.18;100.00
18022;BME280;9136;48.822;7.966;2023-07-20T04:32:57;100163.19;;;16.40;100.00
18022;BME280;9136;48.822;7.966;2023-07-20T04:35:52;100170.47;;;16.36;100.00
18022;BME280;9136;48.822;7.966;2023-07-20T04:38:44;100149.56;;;16.16;100.00
18022;BME280;9136;48.822;7.966;2023-07-20T04:41:34;100148.63;;;16.01;100.00
18022;BME280;9136;48.822;7.966;2023-07-20T04:44:23;100169.56;;;16.06;100.00
18022;BME280;9136;48.822;7.966;2023-07-20T04:47:11;100151.63;;;15.95;100.00
18022;BME280;9136;48.822;7.966;2023-07-20T04:50:01;100171.88;;;16.12;100.00
18022;BME280;9136;48.822;7.966;2023-07-20T04:52:51;100159.06;;;16.04;100.00
18022;BME280;9136;48.822;7.966;2023-07-20T04:55:51;100162.81;;;16.16;100.00
18022;BME280;9136;48.822;7.966;2023-07-20T04:58:43;100162.38;;;16.23;100.00
18022;BME280;9136;48.822;7.966;2023-07-20T05:01:34;100158.25;;;16.34;100.00
18022;BME280;9136;48.822;7.966;2023-07-20T05:04:25;100165.59;;;16.44;100.00
18022;BME280;9136;48.822;7.966;2023-07-20T05:07:13;100174.72;;;16.54;100.00
18022;BME280;9136;48.822;7.966;2023-07-20T05:10:03;100143.53;;;16.44;100.00
18022;BME280;9136;48.822;7.966;2023-07-20T05:12:55;100149.16;;;16.53;100.00
18022;BME280;9136;48.822;7.966;2023-07-20T05:15:44;100166.22;;;16.64;100.00
18022;BME280;9136;48.822;7.966;2023-07-20T05:18:32;100169.22;;;16.73;100.00
18022;BME280;9136;48.822;7.966;2023-07-20T05:21:20;100175.56;;;16.71;100.00
18022;BME280;9136;48.822;7.966;2023-07-20T05:24:08;100175.69;;;16.83;100.00
18022;BME280;9136;48.822;7.966;2023-07-20T05:26:57;100178.91;;;16.88;100.00
18022;BME280;9136;48.822;7.966;2023-07-20T05:29:46;100177.72;;;16.94;100.00
18022;BME280;9136;48.822;7.966;2023-07-20T05:32:39;100182.75;;;16.99;100.00
18022;BME280;9136;48.822;7.966;2023-07-20T05:35:28;100160.28;;;16.90;100.00
18022;BME280;9136;48.822;7.966;2023-07-20T05:38:16;100169.31;;;17.16;100.00
18022;BME280;9136;48.822;7.966;2023-07-20T05:41:04;100155.56;;;17.09;100.00
18022;BME280;9136;48.822;7.966;2023-07-20T05:43:56;100179.56;;;17.22;100.00
18022;BME280;9136;48.822;7.966;2023-07-20T05:46:45;100176.06;;;17.22;100.00
18022;BME280;9136;48.822;7.966;2023-07-20T05:49:34;100167.63;;;17.29;100.00
18022;BME280;9136;48.822;7.966;2023-07-20T05:52:22;100183.25;;;17.34;100.00
18022;BME280;9136;48.822;7.966;2023-07-20T05:55:12;100176.91;;;17.51;100.00
18022;BME280;9136;48.822;7.966;2023-07-20T05:58:00;100187.44;;;17.52;100.00
18022;BME280;9136;48.822;7.966;2023-07-20T06:00:50;100182.31;;;17.63;100.00
18022;BME280;9136;48.822;7.966;2023-07-20T06:03:42;100177.56;;;17.54;100.00
18022;BME280;9136;48.822;7.966;2023-07-20T06:06:30;100198.16;;;17.65;100.00
18022;BME280;9136;48.822;7.966;2023-07-20T06:09:18;100174.34;;;17.63;100.00
18022;BME280;9136;48.822;7.966;2023-07-20T06:12:07;100184.53;;;17.71;100.00
18022;BME280;9136;48.822;7.966;2023-07-20T06:14:55;100184.44;;;17.87;100.00
18022;BME280;9136;48.822;7.966;2023-07-20T06:17:43;100192.84;;;17.93;100.00
18022;BME280;9136;48.822;7.966;2023-07-20T06:20:36;100198.25;;;18.06;100.00
18022;BME280;9136;48.822;7.966;2023-07-20T06:23:24;100191.13;;;18.07;100.00
18022;BME280;9136;48.822;7.966;2023-07-20T06:26:22;100173.00;;;17.99;100.00
18022;BME280;9136;48.822;7.966;2023-07-20T06:29:10;100184.69;;;18.23;100.00
18022;BME280;9136;48.822;7.966;2023-07-20T06:32:00;100171.34;;;18.25;100.00
18022;BME280;9136;48.822;7.966;2023-07-20T06:34:48;100184.91;;;18.20;100.00
18022;BME280;9136;48.822;7.966;2023-07-20T06:37:37;100168.34;;;18.29;100.00
18022;BME280;9136;48.822;7.966;2023-07-20T06:40:25;100197.41;;;18.59;100.00
18022;BME280;9136;48.822;7.966;2023-07-20T06:43:13;100174.63;;;18.55;100.00
18022;BME280;9136;48.822;7.966;2023-07-20T06:46:03;100171.97;;;18.55;100.00
18022;BME280;9136;48.822;7.966;2023-07-20T06:48:53;100179.50;;;18.76;100.00
18022;BME280;9136;48.822;7.966;2023-07-20T06:51:41;100184.09;;;18.86;100.00
18022;BME280;9136;48.822;7.966;2023-07-20T06:54:31;100194.56;;;19.15;100.00
18022;BME280;9136;48.822;7.966;2023-07-20T06:57:20;100182.00;;;19.17;100.00
18022;BME280;9136;48.822;7.966;2023-07-20T07:00:12;100174.97;;;19.29;100.00
18022;BME280;9136;48.822;7.966;2023-07-20T07:03:00;100182.88;;;19.30;100.00
18022;BME280;9136;48.822;7.966;2023-07-20T07:05:48;100191.81;;;19.42;100.00
18022;BME280;9136;48.822;7.966;2023-07-20T07:08:38;100174.09;;;19.54;100.00
18022;BME280;9136;48.822;7.966;2023-07-20T07:11:29;100190.44;;;19.62;98.77
18022;BME280;9136;48.822;7.966;2023-07-20T07:14:17;100194.47;;;19.67;96.96
18022;BME280;9136;48.822;7.966;2023-07-20T07:17:06;100189.91;;;19.69;99.24
18022;BME280;9136;48.822;7.966;2023-07-20T07:19:55;100189.69;;;19.72;95.78
18022;BME280;9136;48.822;7.966;2023-07-20T07:22:45;100179.53;;;19.78;90.00
18022;BME280;9136;48.822;7.966;2023-07-20T07:25:33;100180.25;;;19.92;90.65
18022;BME280;9136;48.822;7.966;2023-07-20T07:28:23;100169.16;;;19.98;90.66
18022;BME280;9136;48.822;7.966;2023-07-20T07:31:11;100190.13;;;20.03;90.96
18022;BME280;9136;48.822;7.966;2023-07-20T07:33:58;100175.66;;;19.94;90.18
18022;BME280;9136;48.822;7.966;2023-07-20T07:36:46;100175.34;;;19.99;86.68
18022;BME280;9136;48.822;7.966;2023-07-20T07:39:34;100169.84;;;20.13;89.18
18022;BME280;9136;48.822;7.966;2023-07-20T07:42:23;100162.88;;;20.23;87.86
18022;BME280;9136;48.822;7.966;2023-07-20T07:45:13;100189.25;;;20.52;88.70
18022;BME280;9136;48.822;7.966;2023-07-20T07:48:03;100168.13;;;20.49;84.75
18022;BME280;9136;48.822;7.966;2023-07-20T07:50:51;100172.97;;;20.55;89.35
18022;BME280;9136;48.822;7.966;2023-07-20T07:53:39;100185.75;;;20.63;84.82
18022;BME280;9136;48.822;7.966;2023-07-20T07:56:27;100177.47;;;20.54;86.20
18022;BME280;9136;48.822;7.966;2023-07-20T07:59:15;100171.94;;;20.57;86.29
18022;BME280;9136;48.822;7.966;2023-07-20T08:02:06;100163.47;;;20.75;83.54
18022;BME280;9136;48.822;7.966;2023-07-20T08:04:53;100183.94;;;20.98;82.26
18022;BME280;9136;48.822;7.966;2023-07-20T08:07:41;100193.25;;;20.81;80.64
18022;BME280;9136;48.822;7.966;2023-07-20T08:10:30;100181.38;;;20.85;83.90
18022;BME280;9136;48.822;7.966;2023-07-20T08:13:17;100182.53;;;21.17;82.96
18022;BME280;9136;48.822;7.966;2023-07-20T08:16:07;100175.41;;;21.28;78.05
18022;BME280;9136;48.822;7.966;2023-07-20T08:18:56;100172.88;;;21.38;75.70
18022;BME280;9136;48.822;7.966;2023-07-20T08:21:44;100194.38;;;21.48;74.42
18022;BME280;9136;48.822;7.966;2023-07-20T08:24:33;100178.59;;;21.45;72.57
18022;BME280;9136;48.822;7.966;2023-07-20T08:27:21;100169.22;;;21.28;70.18
18022;BME280;9136;48.822;7.966;2023-07-20T08:30:10;100171.78;;;21.29;68.30
18022;BME280;9136;48.822;7.966;2023-07-20T08:32:59;100181.53;;;21.64;68.37
18022;BME280;9136;48.822;7.966;2023-07-20T08:35:48;100186.13;;;21.73;67.37
18022;BME280;9136;48.822;7.966;2023-07-20T08:38:37;100179.06;;;21.61;66.66
18022;BME280;9136;48.822;7.966;2023-07-20T08:41:26;100190.75;;;21.93;67.19
18022;BME280;9136;48.822;7.966;2023-07-20T08:44:15;100155.09;;;22.04;64.91
18022;BME280;9136;48.822;7.966;2023-07-20T08:47:04;100161.88;;;22.31;61.44
18022;BME280;9136;48.822;7.966;2023-07-20T08:49:56;100169.66;;;22.34;60.03
18022;BME280;9136;48.822;7.966;2023-07-20T08:52:46;100168.47;;;22.15;58.92
18022;BME280;9136;48.822;7.966;2023-07-20T08:55:34;100171.41;;;22.01;55.41
18022;BME280;9136;48.822;7.966;2023-07-20T08:58:23;100180.41;;;22.11;57.07
18022;BME280;9136;48.822;7.966;2023-07-20T09:01:13;100171.97;;;22.27;54.97
18022;BME280;9136;48.822;7.966;2023-07-20T09:04:02;100177.44;;;22.25;53.84
18022;BME280;9136;48.822;7.966;2023-07-20T09:06:50;100149.97;;;22.23;52.39
18022;BME280;9136;48.822;7.966;2023-07-20T09:09:41;100155.75;;;22.72;52.46
18022;BME280;9136;48.822;7.966;2023-07-20T09:12:29;100174.75;;;22.69;48.85
18022;BME280;9136;48.822;7.966;2023-07-20T09:15:18;100165.66;;;22.60;49.02
18022;BME280;9136;48.822;7.966;2023-07-20T09:18:07;100153.78;;;22.74;49.25
18022;BME280;9136;48.822;7.966;2023-07-20T09:21:02;100174.72;;;23.01;47.91
18022;BME280;9136;48.822;7.966;2023-07-20T09:23:56;100162.38;;;22.89;47.04
18022;BME280;9136;48.822;7.966;2023-07-20T09:26:47;100179.94;;;23.02;46.00
18022;BME280;9136;48.822;7.966;2023-07-20T09:29:47;100159.81;;;22.87;45.24
18022;BME280;9136;48.822;7.966;2023-07-20T09:32:42;100155.06;;;23.11;45.43
18022;BME280;9136;48.822;7.966;2023-07-20T09:35:30;100164.63;;;23.35;44.95
18022;BME280;9136;48.822;7.966;2023-07-20T09:38:19;100163.19;;;23.31;44.65
18022;BME280;9136;48.822;7.966;2023-07-20T09:41:07;100167.13;;;23.27;43.11
18022;BME280;9136;48.822;7.966;2023-07-20T09:43:56;100170.66;;;23.27;43.73
18022;BME280;9136;48.822;7.966;2023-07-20T09:46:45;100147.97;;;23.31;42.94
18022;BME280;9136;48.822;7.966;2023-07-20T09:49:39;100136.56;;;23.60;42.62
18022;BME280;9136;48.822;7.966;2023-07-20T09:52:28;100152.16;;;23.76;42.24
18022;BME280;9136;48.822;7.966;2023-07-20T09:55:16;100156.81;;;23.53;42.00
18022;BME280;9136;48.822;7.966;2023-07-20T09:58:05;100160.91;;;23.78;42.58
18022;BME280;9136;48.822;7.966;2023-07-20T10:00:59;100167.81;;;23.80;41.72
18022;BME280;9136;48.822;7.966;2023-07-20T10:03:53;100133.00;;;23.99;42.41
18022;BME280;9136;48.822;7.966;2023-07-20T10:06:42;100151.31;;;23.75;41.94
18022;BME280;9136;48.822;7.966;2023-07-20T10:09:37;100117.19;;;23.96;40.50
18022;BME280;9136;48.822;7.966;2023-07-20T10:12:27;100125.00;;;24.38;44.23
18022;BME280;9136;48.822;7.966;2023-07-20T10:15:19;100117.78;;;24.68;40.45
18022;BME280;9136;48.822;7.966;2023-07-20T10:18:14;100142.81;;;24.78;39.21
18022;BME280;9136;48.822;7.966;2023-07-20T10:21:06;100117.06;;;24.85;40.58
18022;BME280;9136;48.822;7.966;2023-07-20T10:23:57;100110.28;;;24.81;37.71
18022;BME280;9136;48.822;7.966;2023-07-20T10:26:45;100106.44;;;24.93;37.82
18022;BME280;9136;48.822;7.966;2023-07-20T10:29:35;100120.47;;;24.58;38.01
18022;BME280;9136;48.822;7.966;2023-07-20T10:32:25;100117.25;;;24.54;37.59
18022;BME280;9136;48.822;7.966;2023-07-20T10:35:15;100114.41;;;24.75;38.55
18022;BME280;9136;48.822;7.966;2023-07-20T10:38:06;100112.25;;;24.79;38.14
18022;BME280;9136;48.822;7.966;2023-07-20T10:40:55;100100.63;;;25.07;37.75
18022;BME280;9136;48.822;7.966;2023-07-20T10:43:43;100113.50;;;25.51;37.36
18022;BME280;9136;48.822;7.966;2023-07-20T10:46:45;100109.34;;;26.11;34.40
18022;BME280;9136;48.822;7.966;2023-07-20T10:49:34;100103.06;;;25.65;35.08
18022;BME280;9136;48.822;7.966;2023-07-20T10:52:25;100098.34;;;25.13;35.22
18022;BME280;9136;48.822;7.966;2023-07-20T10:55:14;100092.88;;;25.04;36.44
18022;BME280;9136;48.822;7.966;2023-07-20T10:58:12;100089.41;;;25.22;35.93
18022;BME280;9136;48.822;7.966;2023-07-20T11:01:04;100091.28;;;25.49;36.43
18022;BME280;9136;48.822;7.966;2023-07-20T11:03:58;100078.63;;;26.04;34.97
18022;BME280;9136;48.822;7.966;2023-07-20T11:06:55;100092.59;;;26.17;35.90
18022;BME280;9136;48.822;7.966;2023-07-20T11:09:44;100078.66;;;27.35;33.21
18022;BME280;9136;48.822;7.966;2023-07-20T11:12:36;100079.31;;;28.30;29.45
18022;BME280;9136;48.822;7.966;2023-07-20T11:15:26;100086.09;;;27.33;30.82
18022;BME280;9136;48.822;7.966;2023-07-20T11:18:15;100084.72;;;28.79;28.64
18022;BME280;9136;48.822;7.966;2023-07-20T11:21:03;100081.44;;;31.39;26.03
18022;BME280;9136;48.822;7.966;2023-07-20T11:23:57;100091.81;;;31.50;23.90
18022;BME280;9136;48.822;7.966;2023-07-20T11:26:50;100072.47;;;31.74;24.16
18022;BME280;9136;48.822;7.966;2023-07-20T11:29:38;100083.53;;;28.65;26.82
18022;BME280;9136;48.822;7.966;2023-07-20T11:32:26;100051.91;;;29.06;25.01
18022;BME280;9136;48.822;7.966;2023-07-20T11:35:15;100060.91;;;30.92;21.93
18022;BME280;9136;48.822;7.966;2023-07-20T11:38:14;100069.56;;;30.49;22.90
18022;BME280;9136;48.822;7.966;2023-07-20T11:41:05;100069.47;;;29.58;23.35
18022;BME280;9136;48.822;7.966;2023-07-20T11:43:57;100060.97;;;32.51;21.26
18022;BME280;9136;48.822;7.966;2023-07-20T11:46:46;100058.75;;;34.20;19.67
18022;BME280;9136;48.822;7.966;2023-07-20T11:49:35;100065.84;;;33.94;19.60
18022;BME280;9136;48.822;7.966;2023-07-20T11:52:24;100070.28;;;31.33;23.32
18022;BME280;9136;48.822;7.966;2023-07-20T11:55:14;100053.28;;;30.35;22.73
18022;BME280;9136;48.822;7.966;2023-07-20T11:58:03;100026.59;;;29.70;23.34
18022;BME280;9136;48.822;7.966;2023-07-20T12:00:54;100036.81;;;32.63;21.55
18022;BME280;9136;48.822;7.966;2023-07-20T12:03:44;100019.63;;;32.84;21.37
18022;BME280;9136;48.822;7.966;2023-07-20T12:06:32;100028.25;;;33.35;19.69
18022;BME280;9136;48.822;7.966;2023-07-20T12:09:20;100023.81;;;32.86;21.34
18022;BME280;9136;48.822;7.966;2023-07-20T12:12:12;100014.03;;;32.92;21.59
18022;BME280;9136;48.822;7.966;2023-07-20T12:15:17;100019.97;;;34.18;20.99
18022;BME280;9136;48.822;7.966;2023-07-20T12:18:09;100032.53;;;33.99;20.44
18022;BME280;9136;48.822;7.966;2023-07-20T12:20:59;100032.72;;;32.80;21.69
18022;BME280;9136;48.822;7.966;2023-07-20T12:23:47;100013.94;;;33.61;20.97
18022;BME280;9136;48.822;7.966;2023-07-20T12:26:36;100018.94;;;36.51;20.35
18022;BME280;9136;48.822;7.966;2023-07-20T12:29:28;100005.09;;;37.44;18.56
18022;BME280;9136;48.822;7.966;2023-07-20T12:32:18;100016.19;;;38.51;17.22
18022;BME280;9136;48.822;7.966;2023-07-20T12:35:13;100015.00;;;38.58;17.08
18022;BME280;9136;48.822;7.966;2023-07-20T12:38:02;99998.47;;;36.78;17.29
18022;BME280;9136;48.822;7.966;2023-07-20T12:40:50;99989.25;;;35.98;19.27
18022;BME280;9136;48.822;7.966;2023-07-20T12:43:38;99995.22;;;35.37;18.42
18022;BME280;9136;48.822;7.966;2023-07-20T12:46:26;99992.44;;;35.95;18.15
18022;BME280;9136;48.822;7.966;2023-07-20T12:49:15;99992.09;;;35.33;18.99
18022;BME280;9136;48.822;7.966;2023-07-20T12:52:05;99974.66;;;34.43;20.01
18022;BME280;9136;48.822;7.966;2023-07-20T12:54:55;99990.06;;;35.15;19.29
18022;BME280;9136;48.822;7.966;2023-07-20T12:57:43;99986.72;;;35.13;20.35
18022;BME280;9136;48.822;7.966;2023-07-20T13:00:31;99975.94;;;32.64;22.33
18022;BME280;9136;48.822;7.966;2023-07-20T13:03:19;99978.72;;;31.42;22.59
18022;BME280;9136;48.822;7.966;2023-07-20T13:06:07;99977.25;;;30.13;24.36
18022;BME280;9136;48.822;7.966;2023-07-20T13:08:58;99974.25;;;32.13;21.45
18022;BME280;9136;48.822;7.966;2023-07-20T13:11:46;99970.41;;;34.87;20.29
18022;BME280;9136;48.822;7.966;2023-07-20T13:14:34;99975.66;;;36.16;19.06
18022;BME280;9136;48.822;7.966;2023-07-20T13:17:22;99976.47;;;34.82;19.60
18022;BME280;9136;48.822;7.966;2023-07-20T13:20:10;99978.44;;;34.49;19.00
18022;BME280;9136;48.822;7.966;2023-07-20T13:22:58;99963.53;;;35.74;18.26
18022;BME280;9136;48.822;7.966;2023-07-20T13:25:48;99993.72;;;36.49;17.47
18022;BME280;9136;48.822;7.966;2023-07-20T13:28:37;99959.38;;;36.71;19.89
18022;BME280;9136;48.822;7.966;2023-07-20T13:31:27;99968.59;;;38.45;17.90
18022;BME280;9136;48.822;7.966;2023-07-20T13:34:20;99954.28;;;37.11;18.63
18022;BME280;9136;48.822;7.966;2023-07-20T13:37:09;99952.56;;;36.37;17.29
18022;BME280;9136;48.822;7.966;2023-07-20T13:39:59;99941.19;;;36.40;17.93
18022;BME280;9136;48.822;7.966;2023-07-20T13:42:48;99958.34;;;35.59;17.61
18022;BME280;9136;48.822;7.966;2023-07-20T13:45:36;99944.63;;;33.97;20.05
18022;BME280;9136;48.822;7.966;2023-07-20T13:48:24;99929.16;;;34.17;19.60
18022;BME280;9136;48.822;7.966;2023-07-20T13:51:13;99936.47;;;34.50;19.18
18022;BME280;9136;48.822;7.966;2023-07-20T13:54:01;99937.22;;;33.44;20.13
18022;BME280;9136;48.822;7.966;2023-07-20T13:56:49;99941.47;;;33.12;20.53
18022;BME280;9136;48.822;7.966;2023-07-20T13:59:38;99945.06;;;34.33;18.66
18022;BME280;9136;48.822;7.966;2023-07-20T14:02:28;99924.97;;;35.89;17.81
18022;BME280;9136;48.822;7.966;2023-07-20T14:05:17;99923.41;;;36.67;18.33
18022;BME280;9136;48.822;7.966;2023-07-20T14:08:07;99940.97;;;37.93;19.79
18022;BME280;9136;48.822;7.966;2023-07-20T14:10:55;99926.97;;;39.12;17.13
18022;BME280;9136;48.822;7.966;2023-07-20T14:13:43;99935.34;;;38.00;16.50
18022;BME280;9136;48.822;7.966;2023-07-20T14:16:32;99915.59;;;36.03;19.04
18022;BME280;9136;48.822;7.966;2023-07-20T14:19:20;99921.38;;;34.40;19.52
18022;BME280;9136;48.822;7.966;2023-07-20T14:22:09;99915.72;;;34.42;20.73
18022;BME280;9136;48.822;7.966;2023-07-20T14:24:57;99910.84;;;35.60;20.59
18022;BME280;9136;48.822;7.966;2023-07-20T14:27:45;99891.97;;;36.33;20.18
18022;BME280;9136;48.822;7.966;2023-07-20T14:30:33;99901.31;;;35.31;18.55
18022;BME280;9136;48.822;7.966;2023-07-20T14:33:22;99906.53;;;33.22;20.12
18022;BME280;9136;48.822;7.966;2023-07-20T14:36:10;99904.25;;;32.43;21.52
18022;BME280;9136;48.822;7.966;2023-07-20T14:38:57;99892.63;;;34.38;19.55
18022;BME280;9136;48.822;7.966;2023-07-20T14:41:45;99885.66;;;36.33;20.12
18022;BME280;9136;48.822;7.966;2023-07-20T14:44:33;99897.78;;;36.80;19.59
18022;BME280;9136;48.822;7.966;2023-07-20T14:47:21;99905.09;;;36.86;18.92
18022;BME280;9136;48.822;7.966;2023-07-20T14:50:13;99912.03;;;35.71;18.43
18022;BME280;9136;48.822;7.966;2023-07-20T14:53:02;99903.78;;;33.90;20.30
18022;BME280;9136;48.822;7.966;2023-07-20T14:55:50;99885.47;;;32.90;22.55